普天間 の空港の天気 - METARとTAF

普天間飛行場 ( ROTM / ) - 沖縄県宜野湾市
飛行場実況気象(Metar)
観測時間09/23 06:56 JST (09/22 21:56 UTC)
風向・風速北 2m/s
視程10km以上
天気現象
少しの雲 雲底高度 610m
全天の4割程度の雲 雲底高度 2440m
気温26.7℃
湿度100%
気圧1014hPa
METARROTM 222156Z 36003KT 9999 FEW020 SCT080 27/27 A2999 RMK SLP140 T02670267
過去の天気等 Google飛行場航空写真 Wunderground天気予報

過去48時間のMETAR

飛行場予報(TAF)
発表時間: -
23日10時 JST ~ 23日11時 JST に徐々に
風向・風速北北東 4m/s
視程10km以上
天気現象周辺で雷
少しの積乱雲 雲底高度 760m
全天の4割程度の雲 雲底高度 2440m
23日12時 JST ~ 23日16時 JST に一時的に
風向・風速北東 5m/s 瞬間風速 10m/s
23日18時 JST から
風向・風速北北東 6m/s
視程10km以上
少しの雲 雲底高度 910m
全天の4割程度の雲 雲底高度 1520m
全天の8割程度の雲 雲底高度 3050m
TAF ROTM 2221/2321 VRB06KT 9999 FEW020 SCT100 QNH2994INS
BECMG 2301/2302 02008KT 9999 VCTS FEW025CB SCT080 QNH2996INS
TEMPO 2303/2307 04010G20KT
FM230900 03012KT 9999 FEW030 SCT050 BKN100 QNH2998INS T27/2221Z T31/2305Z
日本の空港のMETAR・TAFへのリンク

RJTT 東京国際空港
RJAA 新東京国際空港
RJBB 関西国際空港
RJOO 大阪空港
RJGG 中部国際空港
RJCC 新千歳空港
RJFF 福岡空港
ROAH 那覇空港


RJEC 旭川空港
RJCH 函館空港
RJCK 釧路空港
RJCM 女満別空港
RJCB 帯広空港
RJSA 青森空港
RJSS 仙台空港
RJSK 秋田空港
RJSF 福島空港
RJAH 茨城空港
RJSN 新潟空港
RJNT 富山空港
RJNK 小松飛行場
RJNS 静岡空港
RJOH 美保飛行場
RJOC 出雲空港
RJOB 岡山空港
RJOA 広島空港
RJOI 岩国飛行場
RJOT 高松空港
RJOM 松山空港
RJOK 高知空港
RJFR 北九州空港
RJFT 熊本空港
RJFU 長崎空港
RJFS 佐賀空港
RJFO 大分空港
RJFM 宮崎空港
RJFK 鹿児島空港
ROIG 石垣島空港
RJTY 横田飛行場
ROTM 普天間飛行場
RODN 嘉手納飛行場